sensor_id;sensor_type;location;lat;lon;timestamp;P1;durP1;ratioP1;P2;durP2;ratioP2
22184;SDS011;11258;52.516;13.318;2022-12-04T00:01:03;102.67;;;42.17;;
22184;SDS011;11258;52.516;13.318;2022-12-04T00:03:30;96.73;;;42.57;;
22184;SDS011;11258;52.516;13.318;2022-12-04T00:06:10;89.40;;;38.63;;
22184;SDS011;11258;52.516;13.318;2022-12-04T00:08:38;91.30;;;40.33;;
22184;SDS011;11258;52.516;13.318;2022-12-04T00:11:05;92.33;;;40.13;;
22184;SDS011;11258;52.516;13.318;2022-12-04T00:13:32;86.57;;;39.27;;
22184;SDS011;11258;52.516;13.318;2022-12-04T00:15:58;99.30;;;41.63;;
22184;SDS011;11258;52.516;13.318;2022-12-04T00:18:24;105.93;;;41.77;;
22184;SDS011;11258;52.516;13.318;2022-12-04T00:20:51;92.30;;;39.40;;
22184;SDS011;11258;52.516;13.318;2022-12-04T00:23:16;95.13;;;41.70;;
22184;SDS011;11258;52.516;13.318;2022-12-04T00:25:42;94.33;;;41.40;;
22184;SDS011;11258;52.516;13.318;2022-12-04T00:28:12;97.60;;;41.60;;
22184;SDS011;11258;52.516;13.318;2022-12-04T00:30:40;94.27;;;41.00;;
22184;SDS011;11258;52.516;13.318;2022-12-04T00:33:06;91.20;;;40.43;;
22184;SDS011;11258;52.516;13.318;2022-12-04T00:35:32;87.97;;;39.47;;
22184;SDS011;11258;52.516;13.318;2022-12-04T00:37:57;97.20;;;41.03;;
22184;SDS011;11258;52.516;13.318;2022-12-04T00:40:23;93.63;;;40.17;;
22184;SDS011;11258;52.516;13.318;2022-12-04T00:42:48;97.10;;;39.67;;
22184;SDS011;11258;52.516;13.318;2022-12-04T00:45:14;100.93;;;41.87;;
22184;SDS011;11258;52.516;13.318;2022-12-04T00:47:39;99.47;;;40.37;;
22184;SDS011;11258;52.516;13.318;2022-12-04T00:50:05;99.17;;;42.17;;
22184;SDS011;11258;52.516;13.318;2022-12-04T00:52:31;93.20;;;39.63;;
22184;SDS011;11258;52.516;13.318;2022-12-04T00:54:57;88.73;;;38.60;;
22184;SDS011;11258;52.516;13.318;2022-12-04T00:57:23;91.03;;;39.70;;
22184;SDS011;11258;52.516;13.318;2022-12-04T00:59:48;99.47;;;41.90;;
22184;SDS011;11258;52.516;13.318;2022-12-04T01:02:14;97.47;;;40.87;;
22184;SDS011;11258;52.516;13.318;2022-12-04T01:04:39;94.20;;;41.67;;
22184;SDS011;11258;52.516;13.318;2022-12-04T01:07:05;97.40;;;38.93;;
22184;SDS011;11258;52.516;13.318;2022-12-04T01:09:31;98.63;;;42.53;;
22184;SDS011;11258;52.516;13.318;2022-12-04T01:11:57;102.30;;;42.33;;
22184;SDS011;11258;52.516;13.318;2022-12-04T01:14:22;99.03;;;40.47;;
22184;SDS011;11258;52.516;13.318;2022-12-04T01:16:48;100.10;;;41.80;;
22184;SDS011;11258;52.516;13.318;2022-12-04T01:19:13;100.73;;;41.20;;
22184;SDS011;11258;52.516;13.318;2022-12-04T01:21:39;100.90;;;43.03;;
22184;SDS011;11258;52.516;13.318;2022-12-04T01:24:05;97.73;;;41.23;;
22184;SDS011;11258;52.516;13.318;2022-12-04T01:26:31;102.77;;;42.10;;
22184;SDS011;11258;52.516;13.318;2022-12-04T01:28:57;97.63;;;41.40;;
22184;SDS011;11258;52.516;13.318;2022-12-04T01:31:23;95.97;;;42.80;;
22184;SDS011;11258;52.516;13.318;2022-12-04T01:33:49;96.70;;;40.60;;
22184;SDS011;11258;52.516;13.318;2022-12-04T01:36:17;97.83;;;43.43;;
22184;SDS011;11258;52.516;13.318;2022-12-04T01:38:44;98.60;;;42.33;;
22184;SDS011;11258;52.516;13.318;2022-12-04T01:41:11;103.90;;;43.07;;
22184;SDS011;11258;52.516;13.318;2022-12-04T01:43:39;104.00;;;43.70;;
22184;SDS011;11258;52.516;13.318;2022-12-04T01:46:05;108.00;;;44.90;;
22184;SDS011;11258;52.516;13.318;2022-12-04T01:48:33;107.33;;;43.40;;
22184;SDS011;11258;52.516;13.318;2022-12-04T01:51:04;106.70;;;43.23;;
22184;SDS011;11258;52.516;13.318;2022-12-04T01:53:39;108.50;;;42.40;;
22184;SDS011;11258;52.516;13.318;2022-12-04T01:56:07;102.67;;;40.87;;
22184;SDS011;11258;52.516;13.318;2022-12-04T01:58:36;111.67;;;48.83;;
22184;SDS011;11258;52.516;13.318;2022-12-04T02:01:06;111.60;;;43.97;;
22184;SDS011;11258;52.516;13.318;2022-12-04T02:03:33;112.47;;;44.90;;
22184;SDS011;11258;52.516;13.318;2022-12-04T02:06:00;115.43;;;44.47;;
22184;SDS011;11258;52.516;13.318;2022-12-04T02:08:25;105.47;;;46.00;;
22184;SDS011;11258;52.516;13.318;2022-12-04T02:13:25;107.37;;;45.73;;
22184;SDS011;11258;52.516;13.318;2022-12-04T02:21:36;114.37;;;47.37;;
22184;SDS011;11258;52.516;13.318;2022-12-04T02:26:49;119.03;;;48.00;;
22184;SDS011;11258;52.516;13.318;2022-12-04T02:29:31;118.60;;;47.60;;
22184;SDS011;11258;52.516;13.318;2022-12-04T02:37:18;111.57;;;45.80;;
22184;SDS011;11258;52.516;13.318;2022-12-04T02:39:55;114.67;;;46.03;;
22184;SDS011;11258;52.516;13.318;2022-12-04T02:42:37;116.17;;;47.17;;
22184;SDS011;11258;52.516;13.318;2022-12-04T02:45:10;116.97;;;47.40;;
22184;SDS011;11258;52.516;13.318;2022-12-04T02:47:44;117.97;;;46.60;;
22184;SDS011;11258;52.516;13.318;2022-12-04T02:50:12;117.83;;;47.50;;
22184;SDS011;11258;52.516;13.318;2022-12-04T02:52:46;121.77;;;48.23;;
22184;SDS011;11258;52.516;13.318;2022-12-04T02:55:41;116.53;;;47.90;;
22184;SDS011;11258;52.516;13.318;2022-12-04T02:58:15;122.93;;;46.03;;
22184;SDS011;11258;52.516;13.318;2022-12-04T03:00:47;118.63;;;46.90;;
22184;SDS011;11258;52.516;13.318;2022-12-04T03:03:17;118.13;;;48.93;;
22184;SDS011;11258;52.516;13.318;2022-12-04T03:05:53;131.37;;;50.37;;
22184;SDS011;11258;52.516;13.318;2022-12-04T03:08:33;117.13;;;47.93;;
22184;SDS011;11258;52.516;13.318;2022-12-04T03:11:03;114.30;;;46.93;;
22184;SDS011;11258;52.516;13.318;2022-12-04T03:13:37;119.97;;;47.33;;
22184;SDS011;11258;52.516;13.318;2022-12-04T03:16:21;114.53;;;49.33;;
22184;SDS011;11258;52.516;13.318;2022-12-04T03:18:58;123.30;;;48.93;;
22184;SDS011;11258;52.516;13.318;2022-12-04T03:21:27;122.00;;;48.57;;
22184;SDS011;11258;52.516;13.318;2022-12-04T03:24:04;125.13;;;51.23;;
22184;SDS011;11258;52.516;13.318;2022-12-04T03:27:11;118.57;;;46.30;;
22184;SDS011;11258;52.516;13.318;2022-12-04T03:30:02;122.53;;;47.93;;
22184;SDS011;11258;52.516;13.318;2022-12-04T03:40:34;119.63;;;46.53;;
22184;SDS011;11258;52.516;13.318;2022-12-04T03:50:46;116.07;;;44.80;;
22184;SDS011;11258;52.516;13.318;2022-12-04T03:53:42;118.67;;;44.97;;
22184;SDS011;11258;52.516;13.318;2022-12-04T03:56:18;108.33;;;43.43;;
22184;SDS011;11258;52.516;13.318;2022-12-04T03:59:03;110.40;;;46.23;;
22184;SDS011;11258;52.516;13.318;2022-12-04T04:01:36;121.47;;;47.10;;
22184;SDS011;11258;52.516;13.318;2022-12-04T04:04:06;107.53;;;45.07;;
22184;SDS011;11258;52.516;13.318;2022-12-04T04:06:38;115.93;;;47.20;;
22184;SDS011;11258;52.516;13.318;2022-12-04T04:09:09;105.43;;;43.93;;
22184;SDS011;11258;52.516;13.318;2022-12-04T04:12:01;109.17;;;43.93;;
22184;SDS011;11258;52.516;13.318;2022-12-04T04:14:41;108.70;;;43.43;;
22184;SDS011;11258;52.516;13.318;2022-12-04T04:17:33;113.73;;;47.20;;
22184;SDS011;11258;52.516;13.318;2022-12-04T04:20:14;114.33;;;46.13;;
22184;SDS011;11258;52.516;13.318;2022-12-04T04:23:04;112.13;;;43.63;;
22184;SDS011;11258;52.516;13.318;2022-12-04T04:26:03;107.07;;;44.30;;
22184;SDS011;11258;52.516;13.318;2022-12-04T04:28:33;110.00;;;45.73;;
22184;SDS011;11258;52.516;13.318;2022-12-04T04:31:05;111.70;;;44.37;;
22184;SDS011;11258;52.516;13.318;2022-12-04T04:33:31;106.17;;;44.90;;
22184;SDS011;11258;52.516;13.318;2022-12-04T04:36:05;107.97;;;44.43;;
22184;SDS011;11258;52.516;13.318;2022-12-04T04:38:42;104.80;;;43.57;;
22184;SDS011;11258;52.516;13.318;2022-12-04T04:41:39;112.93;;;43.87;;
22184;SDS011;11258;52.516;13.318;2022-12-04T04:44:20;118.20;;;47.17;;
22184;SDS011;11258;52.516;13.318;2022-12-04T04:46:55;112.43;;;45.17;;
22184;SDS011;11258;52.516;13.318;2022-12-04T04:49:25;107.47;;;43.07;;
22184;SDS011;11258;52.516;13.318;2022-12-04T04:51:54;111.47;;;44.60;;
22184;SDS011;11258;52.516;13.318;2022-12-04T04:54:21;101.43;;;40.47;;
22184;SDS011;11258;52.516;13.318;2022-12-04T04:56:47;110.83;;;44.13;;
22184;SDS011;11258;52.516;13.318;2022-12-04T04:59:13;109.50;;;44.17;;
22184;SDS011;11258;52.516;13.318;2022-12-04T05:01:40;106.83;;;43.73;;
22184;SDS011;11258;52.516;13.318;2022-12-04T05:04:07;114.03;;;42.50;;
22184;SDS011;11258;52.516;13.318;2022-12-04T05:06:33;102.80;;;41.67;;
22184;SDS011;11258;52.516;13.318;2022-12-04T05:08:59;110.70;;;43.00;;
22184;SDS011;11258;52.516;13.318;2022-12-04T05:11:24;100.13;;;41.77;;
22184;SDS011;11258;52.516;13.318;2022-12-04T05:13:50;110.50;;;43.00;;
22184;SDS011;11258;52.516;13.318;2022-12-04T05:16:16;101.00;;;41.87;;
22184;SDS011;11258;52.516;13.318;2022-12-04T05:18:42;97.10;;;42.00;;
22184;SDS011;11258;52.516;13.318;2022-12-04T05:21:28;100.90;;;44.40;;
22184;SDS011;11258;52.516;13.318;2022-12-04T05:23:54;97.97;;;41.27;;
22184;SDS011;11258;52.516;13.318;2022-12-04T05:26:20;106.27;;;42.87;;
22184;SDS011;11258;52.516;13.318;2022-12-04T05:28:46;102.70;;;43.20;;
22184;SDS011;11258;52.516;13.318;2022-12-04T05:31:11;100.17;;;42.77;;
22184;SDS011;11258;52.516;13.318;2022-12-04T05:33:37;99.20;;;41.67;;
22184;SDS011;11258;52.516;13.318;2022-12-04T05:36:03;115.20;;;44.87;;
22184;SDS011;11258;52.516;13.318;2022-12-04T05:38:31;99.87;;;42.90;;
22184;SDS011;11258;52.516;13.318;2022-12-04T05:40:57;94.80;;;42.37;;
22184;SDS011;11258;52.516;13.318;2022-12-04T05:43:23;106.30;;;42.33;;
22184;SDS011;11258;52.516;13.318;2022-12-04T05:45:49;106.33;;;42.33;;
22184;SDS011;11258;52.516;13.318;2022-12-04T05:48:14;99.30;;;39.53;;
22184;SDS011;11258;52.516;13.318;2022-12-04T05:50:40;101.57;;;41.70;;
22184;SDS011;11258;52.516;13.318;2022-12-04T05:53:06;98.33;;;40.07;;
22184;SDS011;11258;52.516;13.318;2022-12-04T05:55:31;96.80;;;41.60;;
22184;SDS011;11258;52.516;13.318;2022-12-04T05:57:57;100.93;;;42.73;;
22184;SDS011;11258;52.516;13.318;2022-12-04T06:00:22;101.63;;;40.67;;
22184;SDS011;11258;52.516;13.318;2022-12-04T06:02:48;103.67;;;42.20;;
22184;SDS011;11258;52.516;13.318;2022-12-04T06:05:13;97.30;;;42.70;;
22184;SDS011;11258;52.516;13.318;2022-12-04T06:07:39;99.23;;;41.37;;
22184;SDS011;11258;52.516;13.318;2022-12-04T06:10:05;100.10;;;42.50;;
22184;SDS011;11258;52.516;13.318;2022-12-04T06:12:31;107.80;;;41.53;;
22184;SDS011;11258;52.516;13.318;2022-12-04T06:14:56;101.83;;;41.97;;
22184;SDS011;11258;52.516;13.318;2022-12-04T06:17:22;97.70;;;40.53;;
22184;SDS011;11258;52.516;13.318;2022-12-04T06:19:47;96.87;;;40.50;;
22184;SDS011;11258;52.516;13.318;2022-12-04T06:22:13;94.37;;;40.37;;
22184;SDS011;11258;52.516;13.318;2022-12-04T06:24:39;101.97;;;42.03;;
22184;SDS011;11258;52.516;13.318;2022-12-04T06:27:05;96.93;;;41.40;;
22184;SDS011;11258;52.516;13.318;2022-12-04T06:29:30;96.20;;;40.03;;
22184;SDS011;11258;52.516;13.318;2022-12-04T06:31:56;100.10;;;41.50;;
22184;SDS011;11258;52.516;13.318;2022-12-04T06:34:22;111.23;;;45.67;;
22184;SDS011;11258;52.516;13.318;2022-12-04T06:36:48;95.53;;;41.37;;
22184;SDS011;11258;52.516;13.318;2022-12-04T06:39:14;107.43;;;43.80;;
22184;SDS011;11258;52.516;13.318;2022-12-04T06:41:39;101.67;;;41.53;;
22184;SDS011;11258;52.516;13.318;2022-12-04T06:44:05;97.23;;;40.33;;
22184;SDS011;11258;52.516;13.318;2022-12-04T06:46:31;101.37;;;41.87;;
22184;SDS011;11258;52.516;13.318;2022-12-04T06:48:58;103.93;;;42.13;;
22184;SDS011;11258;52.516;13.318;2022-12-04T06:51:26;101.77;;;41.87;;
22184;SDS011;11258;52.516;13.318;2022-12-04T06:53:57;105.90;;;41.90;;
22184;SDS011;11258;52.516;13.318;2022-12-04T06:56:23;99.77;;;41.47;;
22184;SDS011;11258;52.516;13.318;2022-12-04T06:58:52;103.33;;;43.70;;
22184;SDS011;11258;52.516;13.318;2022-12-04T07:01:20;98.43;;;40.90;;
22184;SDS011;11258;52.516;13.318;2022-12-04T07:03:48;99.23;;;42.57;;
22184;SDS011;11258;52.516;13.318;2022-12-04T07:08:52;101.63;;;41.23;;
22184;SDS011;11258;52.516;13.318;2022-12-04T07:11:47;102.67;;;41.03;;
22184;SDS011;11258;52.516;13.318;2022-12-04T07:14:13;98.63;;;39.97;;
22184;SDS011;11258;52.516;13.318;2022-12-04T07:16:39;104.57;;;41.93;;
22184;SDS011;11258;52.516;13.318;2022-12-04T07:19:06;104.73;;;42.00;;
22184;SDS011;11258;52.516;13.318;2022-12-04T07:21:32;93.93;;;40.67;;
22184;SDS011;11258;52.516;13.318;2022-12-04T07:23:59;104.07;;;41.53;;
22184;SDS011;11258;52.516;13.318;2022-12-04T07:26:26;102.50;;;42.03;;
22184;SDS011;11258;52.516;13.318;2022-12-04T07:28:53;105.87;;;42.63;;
22184;SDS011;11258;52.516;13.318;2022-12-04T07:31:20;103.20;;;41.97;;
22184;SDS011;11258;52.516;13.318;2022-12-04T07:33:47;102.23;;;41.43;;
22184;SDS011;11258;52.516;13.318;2022-12-04T07:36:15;98.43;;;43.63;;
22184;SDS011;11258;52.516;13.318;2022-12-04T07:38:46;96.33;;;40.37;;
22184;SDS011;11258;52.516;13.318;2022-12-04T07:41:12;100.83;;;42.50;;
22184;SDS011;11258;52.516;13.318;2022-12-04T07:43:38;94.27;;;39.47;;
22184;SDS011;11258;52.516;13.318;2022-12-04T07:46:04;99.30;;;43.20;;
22184;SDS011;11258;52.516;13.318;2022-12-04T07:48:32;97.27;;;40.07;;
22184;SDS011;11258;52.516;13.318;2022-12-04T07:51:01;99.60;;;41.30;;
22184;SDS011;11258;52.516;13.318;2022-12-04T07:53:29;105.57;;;41.70;;
22184;SDS011;11258;52.516;13.318;2022-12-04T07:55:55;97.67;;;40.93;;
22184;SDS011;11258;52.516;13.318;2022-12-04T07:58:21;97.57;;;40.37;;
22184;SDS011;11258;52.516;13.318;2022-12-04T08:00:46;91.83;;;39.77;;
22184;SDS011;11258;52.516;13.318;2022-12-04T08:03:12;95.43;;;38.30;;
22184;SDS011;11258;52.516;13.318;2022-12-04T08:05:37;96.87;;;41.60;;
22184;SDS011;11258;52.516;13.318;2022-12-04T08:08:03;91.80;;;41.07;;
22184;SDS011;11258;52.516;13.318;2022-12-04T08:10:29;97.77;;;43.23;;
22184;SDS011;11258;52.516;13.318;2022-12-04T08:12:54;99.23;;;40.30;;
22184;SDS011;11258;52.516;13.318;2022-12-04T08:15:20;92.87;;;40.60;;
22184;SDS011;11258;52.516;13.318;2022-12-04T08:17:45;95.17;;;40.47;;
22184;SDS011;11258;52.516;13.318;2022-12-04T08:20:11;96.27;;;39.70;;
22184;SDS011;11258;52.516;13.318;2022-12-04T08:22:37;99.07;;;39.70;;
22184;SDS011;11258;52.516;13.318;2022-12-04T08:25:02;91.37;;;39.73;;
22184;SDS011;11258;52.516;13.318;2022-12-04T08:27:28;89.57;;;39.20;;
22184;SDS011;11258;52.516;13.318;2022-12-04T08:29:54;89.70;;;37.90;;
22184;SDS011;11258;52.516;13.318;2022-12-04T08:32:19;91.90;;;38.73;;
22184;SDS011;11258;52.516;13.318;2022-12-04T08:34:45;91.07;;;40.70;;
22184;SDS011;11258;52.516;13.318;2022-12-04T08:37:10;91.70;;;39.17;;
22184;SDS011;11258;52.516;13.318;2022-12-04T08:39:36;97.40;;;40.67;;
22184;SDS011;11258;52.516;13.318;2022-12-04T08:42:02;107.57;;;43.50;;
22184;SDS011;11258;52.516;13.318;2022-12-04T08:44:27;94.00;;;38.13;;
22184;SDS011;11258;52.516;13.318;2022-12-04T08:46:53;85.03;;;38.13;;
22184;SDS011;11258;52.516;13.318;2022-12-04T08:49:18;84.67;;;37.53;;
22184;SDS011;11258;52.516;13.318;2022-12-04T08:51:44;92.27;;;39.70;;
22184;SDS011;11258;52.516;13.318;2022-12-04T08:54:10;95.53;;;40.43;;
22184;SDS011;11258;52.516;13.318;2022-12-04T08:56:36;89.77;;;39.17;;
22184;SDS011;11258;52.516;13.318;2022-12-04T08:59:02;97.63;;;40.23;;
22184;SDS011;11258;52.516;13.318;2022-12-04T09:01:28;92.57;;;39.93;;
22184;SDS011;11258;52.516;13.318;2022-12-04T09:03:54;90.60;;;40.77;;
22184;SDS011;11258;52.516;13.318;2022-12-04T09:06:20;99.67;;;40.43;;
22184;SDS011;11258;52.516;13.318;2022-12-04T09:08:47;95.77;;;39.77;;
22184;SDS011;11258;52.516;13.318;2022-12-04T09:11:13;95.70;;;39.93;;
22184;SDS011;11258;52.516;13.318;2022-12-04T09:13:41;94.00;;;41.03;;
22184;SDS011;11258;52.516;13.318;2022-12-04T09:16:08;94.77;;;40.20;;
22184;SDS011;11258;52.516;13.318;2022-12-04T09:18:36;89.53;;;37.40;;
22184;SDS011;11258;52.516;13.318;2022-12-04T09:21:03;100.33;;;41.77;;
22184;SDS011;11258;52.516;13.318;2022-12-04T09:23:31;101.00;;;39.27;;
22184;SDS011;11258;52.516;13.318;2022-12-04T09:25:58;97.93;;;41.70;;
22184;SDS011;11258;52.516;13.318;2022-12-04T09:28:24;92.47;;;38.87;;
22184;SDS011;11258;52.516;13.318;2022-12-04T09:30:56;88.50;;;37.70;;
22184;SDS011;11258;52.516;13.318;2022-12-04T09:33:23;98.50;;;39.70;;
22184;SDS011;11258;52.516;13.318;2022-12-04T09:35:48;94.60;;;37.50;;
22184;SDS011;11258;52.516;13.318;2022-12-04T09:38:14;95.23;;;39.53;;
22184;SDS011;11258;52.516;13.318;2022-12-04T09:40:48;92.30;;;38.73;;
22184;SDS011;11258;52.516;13.318;2022-12-04T09:43:34;91.33;;;38.13;;
22184;SDS011;11258;52.516;13.318;2022-12-04T09:46:11;92.70;;;35.90;;
22184;SDS011;11258;52.516;13.318;2022-12-04T09:48:42;85.70;;;37.30;;
22184;SDS011;11258;52.516;13.318;2022-12-04T09:51:13;91.70;;;37.97;;
22184;SDS011;11258;52.516;13.318;2022-12-04T09:53:53;90.57;;;37.73;;
22184;SDS011;11258;52.516;13.318;2022-12-04T09:56:26;94.77;;;38.67;;
22184;SDS011;11258;52.516;13.318;2022-12-04T09:58:57;82.77;;;38.47;;
22184;SDS011;11258;52.516;13.318;2022-12-04T10:01:30;85.57;;;37.07;;
22184;SDS011;11258;52.516;13.318;2022-12-04T10:04:07;93.13;;;39.67;;
22184;SDS011;11258;52.516;13.318;2022-12-04T10:12:52;92.07;;;37.67;;
22184;SDS011;11258;52.516;13.318;2022-12-04T10:17:57;95.30;;;38.27;;
22184;SDS011;11258;52.516;13.318;2022-12-04T10:26:14;81.37;;;37.23;;
22184;SDS011;11258;52.516;13.318;2022-12-04T10:28:50;87.97;;;37.17;;
22184;SDS011;11258;52.516;13.318;2022-12-04T10:31:36;83.43;;;36.07;;
22184;SDS011;11258;52.516;13.318;2022-12-04T10:34:06;120.10;;;56.00;;
22184;SDS011;11258;52.516;13.318;2022-12-04T10:36:48;89.53;;;38.40;;
22184;SDS011;11258;52.516;13.318;2022-12-04T10:41:54;91.20;;;37.30;;
22184;SDS011;11258;52.516;13.318;2022-12-04T10:44:25;87.77;;;37.17;;
22184;SDS011;11258;52.516;13.318;2022-12-04T10:46:56;86.47;;;37.70;;
22184;SDS011;11258;52.516;13.318;2022-12-04T10:49:27;84.43;;;36.30;;
22184;SDS011;11258;52.516;13.318;2022-12-04T10:51:55;89.07;;;37.50;;
22184;SDS011;11258;52.516;13.318;2022-12-04T10:54:32;93.63;;;37.13;;
22184;SDS011;11258;52.516;13.318;2022-12-04T10:57:05;88.70;;;37.43;;
22184;SDS011;11258;52.516;13.318;2022-12-04T10:59:32;86.57;;;37.43;;
22184;SDS011;11258;52.516;13.318;2022-12-04T11:04:36;83.03;;;35.33;;
22184;SDS011;11258;52.516;13.318;2022-12-04T11:07:04;94.13;;;38.53;;
22184;SDS011;11258;52.516;13.318;2022-12-04T11:09:52;81.93;;;36.10;;
22184;SDS011;11258;52.516;13.318;2022-12-04T11:12:28;87.50;;;36.10;;
22184;SDS011;11258;52.516;13.318;2022-12-04T11:15:01;90.87;;;37.33;;
22184;SDS011;11258;52.516;13.318;2022-12-04T11:17:30;84.27;;;36.43;;
22184;SDS011;11258;52.516;13.318;2022-12-04T11:19:59;90.03;;;36.97;;
22184;SDS011;11258;52.516;13.318;2022-12-04T11:22:30;85.23;;;37.77;;
22184;SDS011;11258;52.516;13.318;2022-12-04T11:24:56;83.83;;;37.10;;
22184;SDS011;11258;52.516;13.318;2022-12-04T11:27:32;88.83;;;37.10;;
22184;SDS011;11258;52.516;13.318;2022-12-04T11:30:07;80.73;;;35.93;;
22184;SDS011;11258;52.516;13.318;2022-12-04T11:32:34;85.27;;;35.83;;
22184;SDS011;11258;52.516;13.318;2022-12-04T11:35:16;87.23;;;38.10;;
22184;SDS011;11258;52.516;13.318;2022-12-04T11:40:32;87.40;;;36.80;;
22184;SDS011;11258;52.516;13.318;2022-12-04T11:43:03;87.73;;;37.47;;
22184;SDS011;11258;52.516;13.318;2022-12-04T11:45:35;76.80;;;34.40;;
22184;SDS011;11258;52.516;13.318;2022-12-04T11:48:02;75.30;;;36.17;;
22184;SDS011;11258;52.516;13.318;2022-12-04T11:53:42;83.63;;;37.83;;
22184;SDS011;11258;52.516;13.318;2022-12-04T11:56:25;87.17;;;37.33;;
22184;SDS011;11258;52.516;13.318;2022-12-04T12:04:41;70.00;;;35.07;;
22184;SDS011;11258;52.516;13.318;2022-12-04T12:12:45;85.93;;;36.47;;
22184;SDS011;11258;52.516;13.318;2022-12-04T12:18:16;88.00;;;33.37;;
22184;SDS011;11258;52.516;13.318;2022-12-04T12:26:21;82.03;;;37.00;;
22184;SDS011;11258;52.516;13.318;2022-12-04T12:36:53;77.43;;;36.63;;
22184;SDS011;11258;52.516;13.318;2022-12-04T12:39:22;73.07;;;34.43;;
22184;SDS011;11258;52.516;13.318;2022-12-04T12:42:00;85.07;;;34.83;;
22184;SDS011;11258;52.516;13.318;2022-12-04T12:44:32;87.20;;;35.17;;
22184;SDS011;11258;52.516;13.318;2022-12-04T12:49:35;80.50;;;37.13;;
22184;SDS011;11258;52.516;13.318;2022-12-04T12:52:26;79.77;;;33.53;;
22184;SDS011;11258;52.516;13.318;2022-12-04T12:55:12;82.83;;;35.63;;
22184;SDS011;11258;52.516;13.318;2022-12-04T12:57:40;79.43;;;37.13;;
22184;SDS011;11258;52.516;13.318;2022-12-04T13:00:13;89.43;;;35.20;;
22184;SDS011;11258;52.516;13.318;2022-12-04T13:05:32;79.33;;;34.40;;
22184;SDS011;11258;52.516;13.318;2022-12-04T13:08:25;93.40;;;37.97;;
22184;SDS011;11258;52.516;13.318;2022-12-04T13:13:57;80.93;;;33.73;;
22184;SDS011;11258;52.516;13.318;2022-12-04T13:16:34;80.93;;;36.70;;
22184;SDS011;11258;52.516;13.318;2022-12-04T13:21:49;78.50;;;37.77;;
22184;SDS011;11258;52.516;13.318;2022-12-04T13:27:16;87.07;;;35.80;;
22184;SDS011;11258;52.516;13.318;2022-12-04T13:33:17;84.97;;;35.93;;
22184;SDS011;11258;52.516;13.318;2022-12-04T13:36:11;88.73;;;37.03;;
22184;SDS011;11258;52.516;13.318;2022-12-04T13:41:36;88.07;;;35.60;;
22184;SDS011;11258;52.516;13.318;2022-12-04T13:44:10;94.37;;;37.10;;
22184;SDS011;11258;52.516;13.318;2022-12-04T13:46:39;86.83;;;36.73;;
22184;SDS011;11258;52.516;13.318;2022-12-04T13:51:50;84.27;;;35.93;;
22184;SDS011;11258;52.516;13.318;2022-12-04T13:54:19;83.70;;;36.40;;
22184;SDS011;11258;52.516;13.318;2022-12-04T13:56:50;87.33;;;35.43;;
22184;SDS011;11258;52.516;13.318;2022-12-04T13:59:32;82.70;;;36.87;;
22184;SDS011;11258;52.516;13.318;2022-12-04T14:02:15;83.60;;;37.57;;
22184;SDS011;11258;52.516;13.318;2022-12-04T14:07:25;86.60;;;37.77;;
22184;SDS011;11258;52.516;13.318;2022-12-04T14:09:50;83.37;;;36.40;;
22184;SDS011;11258;52.516;13.318;2022-12-04T14:12:22;89.23;;;36.93;;
22184;SDS011;11258;52.516;13.318;2022-12-04T14:15:07;90.73;;;37.20;;
22184;SDS011;11258;52.516;13.318;2022-12-04T14:17:46;92.97;;;37.87;;
22184;SDS011;11258;52.516;13.318;2022-12-04T14:20:26;93.33;;;38.67;;
22184;SDS011;11258;52.516;13.318;2022-12-04T14:22:54;92.00;;;38.40;;
22184;SDS011;11258;52.516;13.318;2022-12-04T14:25:34;92.77;;;37.37;;
22184;SDS011;11258;52.516;13.318;2022-12-04T14:31:02;90.03;;;35.83;;
22184;SDS011;11258;52.516;13.318;2022-12-04T14:33:32;99.03;;;39.77;;
22184;SDS011;11258;52.516;13.318;2022-12-04T14:36:06;99.23;;;38.37;;
22184;SDS011;11258;52.516;13.318;2022-12-04T14:38:34;107.07;;;37.97;;
22184;SDS011;11258;52.516;13.318;2022-12-04T14:41:00;96.47;;;37.03;;
22184;SDS011;11258;52.516;13.318;2022-12-04T14:43:29;99.20;;;39.43;;
22184;SDS011;11258;52.516;13.318;2022-12-04T14:48:44;96.83;;;40.07;;
22184;SDS011;11258;52.516;13.318;2022-12-04T14:51:32;102.90;;;38.20;;
22184;SDS011;11258;52.516;13.318;2022-12-04T14:59:52;92.07;;;38.43;;
22184;SDS011;11258;52.516;13.318;2022-12-04T15:04:58;98.60;;;39.33;;
22184;SDS011;11258;52.516;13.318;2022-12-04T15:07:27;107.53;;;40.00;;
22184;SDS011;11258;52.516;13.318;2022-12-04T15:09:56;111.23;;;40.43;;
22184;SDS011;11258;52.516;13.318;2022-12-04T15:12:52;103.30;;;39.73;;
22184;SDS011;11258;52.516;13.318;2022-12-04T15:15:20;112.50;;;40.87;;
22184;SDS011;11258;52.516;13.318;2022-12-04T15:17:54;114.10;;;41.63;;
22184;SDS011;11258;52.516;13.318;2022-12-04T15:20:21;113.77;;;41.03;;
22184;SDS011;11258;52.516;13.318;2022-12-04T15:22:48;108.90;;;40.23;;
22184;SDS011;11258;52.516;13.318;2022-12-04T15:25:21;112.73;;;41.53;;
22184;SDS011;11258;52.516;13.318;2022-12-04T15:27:50;104.87;;;40.03;;
22184;SDS011;11258;52.516;13.318;2022-12-04T15:30:19;115.80;;;42.17;;
22184;SDS011;11258;52.516;13.318;2022-12-04T15:32:47;107.40;;;39.30;;
22184;SDS011;11258;52.516;13.318;2022-12-04T15:35:26;117.03;;;41.17;;
22184;SDS011;11258;52.516;13.318;2022-12-04T15:37:54;117.87;;;40.50;;
22184;SDS011;11258;52.516;13.318;2022-12-04T15:40:22;121.83;;;43.40;;
22184;SDS011;11258;52.516;13.318;2022-12-04T15:42:51;125.73;;;41.17;;
22184;SDS011;11258;52.516;13.318;2022-12-04T15:55:30;119.77;;;42.87;;
22184;SDS011;11258;52.516;13.318;2022-12-04T15:58:00;125.27;;;43.70;;
22184;SDS011;11258;52.516;13.318;2022-12-04T16:00:30;124.30;;;44.83;;
22184;SDS011;11258;52.516;13.318;2022-12-04T16:03:00;125.20;;;42.37;;
22184;SDS011;11258;52.516;13.318;2022-12-04T16:05:32;116.53;;;43.90;;
22184;SDS011;11258;52.516;13.318;2022-12-04T16:08:23;110.73;;;41.20;;
22184;SDS011;11258;52.516;13.318;2022-12-04T16:11:06;187.97;;;84.67;;
22184;SDS011;11258;52.516;13.318;2022-12-04T16:13:41;125.90;;;43.43;;
22184;SDS011;11258;52.516;13.318;2022-12-04T16:16:09;124.97;;;43.40;;
22184;SDS011;11258;52.516;13.318;2022-12-04T16:18:37;115.13;;;44.13;;
22184;SDS011;11258;52.516;13.318;2022-12-04T16:21:04;121.17;;;44.93;;
22184;SDS011;11258;52.516;13.318;2022-12-04T16:23:32;120.23;;;44.30;;
22184;SDS011;11258;52.516;13.318;2022-12-04T16:25:57;113.83;;;43.70;;
22184;SDS011;11258;52.516;13.318;2022-12-04T16:28:23;132.97;;;46.53;;
22184;SDS011;11258;52.516;13.318;2022-12-04T16:30:49;119.03;;;43.30;;
22184;SDS011;11258;52.516;13.318;2022-12-04T16:33:16;117.33;;;43.07;;
22184;SDS011;11258;52.516;13.318;2022-12-04T16:35:42;131.47;;;45.60;;
22184;SDS011;11258;52.516;13.318;2022-12-04T16:38:11;128.87;;;46.43;;
22184;SDS011;11258;52.516;13.318;2022-12-04T16:40:40;141.20;;;47.63;;